Kananaskis, Canada
Current Conditions -  °F | °C
As of 3:00 AM on Sunday 26 Oct 2014 (Local Time) from CYBW Reporting Station
Clear Clear  
Wind Chill: 30°   Ceiling: Unl
Heat Index: 30°   Visibility: 9mi
Dew Point: 30°   Wind: 3mph
Humidity: 100%   Direction: 340°NNW
Pressure: 29.36"   Gusts: NA
Location:  50.93°N, 115.13°W
Report Text: CYBW 260900Z AUTO 34003KT 320V020 9SM CLR M01/M01 A2936 RMK SLP971
Loading
Personal Weather Stations






























Interactive Weather Map
Tropical Storm Tracking
New forecast layout! Learn more

10-Day Weather Forecast

Advertisements
Track Severe Weather on mobile